createdAt,value
2022-08-29T00:00:36.781Z,14.22
2022-08-29T00:03:09.732Z,14.20
2022-08-29T00:05:41.938Z,14.17
2022-08-29T00:08:14.513Z,14.13
2022-08-29T00:10:46.204Z,14.12
2022-08-29T00:13:18.166Z,14.09
2022-08-29T00:15:49.662Z,14.06
2022-08-29T00:18:21.588Z,14.01
2022-08-29T00:20:53.078Z,13.99
2022-08-29T00:23:24.881Z,14.00
2022-08-29T00:25:56.637Z,13.97
2022-08-29T00:28:28.456Z,13.93
2022-08-29T00:30:59.965Z,13.90
2022-08-29T00:33:31.490Z,13.90
2022-08-29T00:36:02.986Z,13.87
2022-08-29T00:38:36.223Z,13.06
2022-08-29T00:41:08.026Z,13.85
2022-08-29T00:43:39.996Z,13.84
2022-08-29T00:46:11.608Z,13.83
2022-08-29T00:48:43.535Z,13.80
2022-08-29T00:51:15.032Z,13.76
2022-08-29T00:53:46.891Z,13.71
2022-08-29T00:56:18.424Z,13.65
2022-08-29T00:58:50.451Z,13.68
2022-08-29T01:01:23.126Z,13.69
2022-08-29T01:03:55.135Z,13.66
2022-08-29T01:06:27.169Z,13.65
2022-08-29T01:08:58.719Z,13.64
2022-08-29T01:11:49.502Z,13.62
2022-08-29T01:14:21.010Z,13.64
2022-08-29T01:16:52.931Z,13.59
2022-08-29T01:19:24.459Z,13.57
2022-08-29T01:21:59.800Z,13.59
2022-08-29T01:24:31.308Z,13.56
2022-08-29T01:27:03.134Z,13.56
2022-08-29T01:29:34.881Z,13.54
2022-08-29T01:32:07.003Z,13.57
2022-08-29T01:34:38.538Z,13.57
2022-08-29T01:37:10.418Z,13.55
2022-08-29T01:39:41.923Z,13.53
2022-08-29T01:42:13.785Z,13.52
2022-08-29T01:44:45.543Z,13.48
2022-08-29T01:47:17.357Z,13.42
2022-08-29T01:49:50.215Z,13.43
2022-08-29T01:52:22.235Z,13.38
2022-08-29T01:54:53.959Z,13.37
2022-08-29T01:57:25.793Z,13.34
2022-08-29T01:59:57.303Z,13.31
2022-08-29T02:02:29.288Z,13.27
2022-08-29T02:05:00.807Z,13.24
2022-08-29T02:07:32.663Z,13.25
2022-08-29T02:10:04.151Z,13.24
2022-08-29T02:12:36.064Z,13.18
2022-08-29T02:15:07.708Z,13.13
2022-08-29T02:17:39.543Z,13.13
2022-08-29T02:20:11.047Z,13.12
2022-08-29T02:22:42.851Z,13.10
2022-08-29T02:25:33.120Z,13.07
2022-08-29T02:28:05.124Z,13.09
2022-08-29T02:30:36.621Z,13.08
2022-08-29T02:33:08.134Z,13.08
2022-08-29T02:35:42.591Z,13.05
2022-08-29T02:38:14.870Z,13.04
2022-08-29T02:40:46.552Z,13.04
2022-08-29T02:43:19.874Z,13.01
2022-08-29T02:45:51.390Z,12.98
2022-08-29T02:48:23.231Z,12.96
2022-08-29T02:50:54.766Z,12.96
2022-08-29T02:53:26.961Z,12.94
2022-08-29T02:55:58.516Z,12.95
2022-08-29T02:58:30.539Z,12.91
2022-08-29T03:01:02.100Z,12.87
2022-08-29T03:03:33.976Z,12.87
2022-08-29T03:06:05.471Z,12.83
2022-08-29T03:08:38.406Z,12.81
2022-08-29T03:11:10.288Z,12.81
2022-08-29T03:13:41.799Z,12.78
2022-08-29T03:16:13.683Z,12.77
2022-08-29T03:18:45.210Z,12.74
2022-08-29T03:21:17.113Z,12.71
2022-08-29T03:23:48.682Z,12.66
2022-08-29T03:26:20.671Z,12.64
2022-08-29T03:28:52.261Z,12.62
2022-08-29T03:31:23.991Z,12.60
2022-08-29T03:33:56.586Z,12.61
2022-08-29T03:36:28.620Z,12.60
2022-08-29T03:39:00.154Z,12.58
2022-08-29T03:41:32.011Z,11.55
2022-08-29T03:44:03.607Z,12.59
2022-08-29T03:46:39.825Z,12.58
2022-08-29T03:49:11.839Z,12.56
2022-08-29T03:51:43.681Z,12.55
2022-08-29T03:54:15.220Z,12.56
2022-08-29T03:56:47.186Z,12.52
2022-08-29T03:59:18.753Z,12.51
2022-08-29T04:01:51.217Z,12.48
2022-08-29T04:04:41.656Z,12.46
2022-08-29T04:07:15.046Z,12.46
2022-08-29T04:09:46.548Z,12.45
2022-08-29T04:12:21.267Z,12.42
2022-08-29T04:14:53.135Z,12.40
2022-08-29T04:17:24.662Z,12.42
2022-08-29T04:19:56.763Z,12.42
2022-08-29T04:22:28.273Z,12.41
2022-08-29T04:25:00.123Z,12.41
2022-08-29T04:27:31.669Z,12.44
2022-08-29T04:30:03.499Z,12.44
2022-08-29T04:32:34.996Z,12.46
2022-08-29T04:35:06.997Z,12.49
2022-08-29T04:37:39.826Z,12.56
2022-08-29T04:40:11.680Z,12.57
2022-08-29T04:42:43.234Z,12.55
2022-08-29T04:45:15.143Z,12.60
2022-08-29T04:47:46.640Z,12.63
2022-08-29T04:50:18.586Z,12.67
2022-08-29T04:52:50.205Z,12.78
2022-08-29T04:55:22.673Z,12.85
2022-08-29T04:57:57.476Z,12.99
2022-08-29T05:00:30.472Z,13.01
2022-08-29T05:03:02.525Z,13.12
2022-08-29T05:05:34.352Z,13.27
2022-08-29T05:08:05.907Z,13.39
2022-08-29T05:10:37.715Z,13.50
2022-08-29T05:13:09.278Z,13.57
2022-08-29T05:15:41.266Z,13.66
2022-08-29T05:18:13.442Z,13.77
2022-08-29T05:20:45.460Z,13.84
2022-08-29T05:23:16.969Z,13.98
2022-08-29T05:25:48.480Z,14.16
2022-08-29T05:28:20.332Z,14.22
2022-08-29T05:30:52.095Z,14.21
2022-08-29T05:33:23.875Z,14.40
2022-08-29T05:35:56.315Z,14.49
2022-08-29T05:38:27.978Z,14.41
2022-08-29T05:41:00.289Z,14.37
2022-08-29T05:43:32.812Z,14.46
2022-08-29T05:46:04.753Z,14.53
2022-08-29T05:48:36.339Z,14.61
2022-08-29T05:51:08.432Z,14.54
2022-08-29T05:53:40.163Z,14.42
2022-08-29T05:56:12.101Z,14.56
2022-08-29T05:58:44.076Z,14.54
2022-08-29T06:01:15.871Z,14.65
2022-08-29T06:03:47.684Z,14.73
2022-08-29T06:06:19.684Z,14.87
2022-08-29T06:08:54.900Z,14.94
2022-08-29T06:11:26.853Z,14.98
2022-08-29T06:13:59.364Z,15.02
2022-08-29T06:16:31.159Z,15.05
2022-08-29T06:19:02.663Z,15.34
2022-08-29T06:21:34.815Z,15.42
2022-08-29T06:24:06.473Z,15.52
2022-08-29T06:26:38.039Z,15.73
2022-08-29T06:29:10.162Z,15.94
2022-08-29T06:31:41.727Z,15.95
2022-08-29T06:34:13.265Z,16.01
2022-08-29T06:36:45.089Z,16.21
2022-08-29T06:39:16.780Z,16.31
2022-08-29T06:41:48.300Z,15.99
2022-08-29T06:44:21.851Z,15.95
2022-08-29T06:46:53.458Z,16.01
2022-08-29T06:49:25.788Z,15.98
2022-08-29T06:51:58.514Z,16.10
2022-08-29T06:54:30.871Z,16.04
2022-08-29T06:57:02.438Z,16.00
2022-08-29T06:59:34.334Z,15.89
2022-08-29T07:02:05.830Z,15.76
2022-08-29T07:04:38.073Z,15.73
2022-08-29T07:07:10.046Z,16.02
2022-08-29T07:09:41.936Z,15.92
2022-08-29T07:15:16.093Z,16.20
2022-08-29T07:17:59.871Z,16.25
2022-08-29T07:20:39.519Z,16.62
2022-08-29T07:23:14.030Z,16.65
2022-08-29T07:25:46.842Z,17.09
2022-08-29T07:28:21.350Z,16.94
2022-08-29T07:41:10.059Z,17.21
2022-08-29T07:43:41.614Z,17.23
2022-08-29T07:46:16.135Z,17.37
2022-08-29T07:48:47.703Z,17.69
2022-08-29T07:51:21.726Z,17.78
2022-08-29T07:53:53.368Z,18.02
2022-08-29T07:56:30.327Z,18.32
2022-08-29T07:59:04.096Z,18.27
2022-08-29T08:01:35.884Z,17.79
2022-08-29T08:04:07.779Z,17.53
2022-08-29T08:06:40.996Z,17.85
2022-08-29T08:09:15.759Z,18.09
2022-08-29T08:11:47.453Z,17.96
2022-08-29T08:14:19.172Z,17.81
2022-08-29T08:16:50.724Z,17.80
2022-08-29T08:19:22.496Z,17.83
2022-08-29T08:21:53.993Z,18.02
2022-08-29T08:24:25.801Z,18.28
2022-08-29T08:26:57.933Z,18.00
2022-08-29T08:29:29.452Z,17.86
2022-08-29T08:32:00.964Z,18.01
2022-08-29T08:34:35.715Z,18.33
2022-08-29T08:37:07.882Z,18.74
2022-08-29T08:39:39.972Z,18.68
2022-08-29T08:42:11.505Z,18.46
2022-08-29T08:44:43.544Z,18.33
2022-08-29T08:47:15.625Z,18.45
2022-08-29T08:49:47.853Z,18.51
2022-08-29T08:52:20.557Z,18.88
2022-08-29T08:54:53.171Z,18.88
2022-08-29T08:57:25.552Z,18.99
2022-08-29T08:59:57.857Z,18.77
2022-08-29T09:02:29.403Z,18.88
2022-08-29T09:05:01.015Z,18.58
2022-08-29T09:07:32.566Z,18.61
2022-08-29T09:10:04.645Z,18.60
2022-08-29T09:12:36.200Z,18.68
2022-08-29T09:15:13.705Z,18.49
2022-08-29T09:17:45.557Z,18.93
2022-08-29T09:20:17.096Z,18.71
2022-08-29T09:22:51.673Z,18.54
2022-08-29T09:25:27.925Z,18.49
2022-08-29T09:27:59.746Z,18.54
2022-08-29T09:30:31.379Z,18.60
2022-08-29T09:33:02.965Z,18.54
2022-08-29T09:35:34.836Z,18.74
2022-08-29T09:38:06.865Z,18.85
2022-08-29T09:40:38.604Z,18.90
2022-08-29T09:43:10.155Z,19.20
2022-08-29T09:45:42.187Z,19.06
2022-08-29T09:48:14.290Z,18.93
2022-08-29T09:50:45.847Z,19.22
2022-08-29T09:53:24.588Z,19.32
2022-08-29T09:55:56.853Z,19.33
2022-08-29T09:58:28.722Z,19.24
2022-08-29T10:01:00.283Z,19.31
2022-08-29T10:03:32.211Z,19.53
2022-08-29T10:06:04.457Z,19.40
2022-08-29T10:08:36.405Z,19.24
2022-08-29T10:11:08.919Z,19.09
2022-08-29T10:13:40.780Z,19.30
2022-08-29T10:16:12.331Z,19.13
2022-08-29T10:18:44.607Z,19.27
2022-08-29T10:21:16.713Z,19.51
2022-08-29T10:23:48.287Z,19.75
2022-08-29T10:26:20.425Z,19.78
2022-08-29T10:28:52.001Z,20.05
2022-08-29T10:31:23.974Z,20.36
2022-08-29T10:33:55.974Z,20.91
2022-08-29T10:36:28.017Z,21.27
2022-08-29T10:38:59.580Z,21.47
2022-08-29T10:41:31.144Z,21.31
2022-08-29T10:44:02.677Z,21.40
2022-08-29T10:46:34.214Z,21.59
2022-08-29T10:49:07.116Z,21.89
2022-08-29T10:51:38.633Z,22.37
2022-08-29T10:54:10.463Z,22.43
2022-08-29T10:56:41.991Z,22.75
2022-08-29T10:59:13.833Z,23.35
2022-08-29T11:01:45.387Z,23.13
2022-08-29T11:04:20.226Z,24.04
2022-08-29T11:06:51.791Z,24.22
2022-08-29T11:09:23.663Z,25.16
2022-08-29T11:11:55.190Z,24.01
2022-08-29T11:14:27.011Z,23.03
2022-08-29T11:16:58.542Z,23.46
2022-08-29T11:19:34.786Z,23.39
2022-08-29T11:22:06.289Z,22.93
2022-08-29T11:24:38.130Z,22.52
2022-08-29T11:27:09.724Z,23.09
2022-08-29T11:29:41.546Z,23.25
2022-08-29T11:32:13.125Z,23.36
2022-08-29T11:34:44.655Z,23.48
2022-08-29T11:37:16.272Z,23.76
2022-08-29T11:39:48.245Z,23.94
2022-08-29T11:45:11.761Z,24.78
2022-08-29T11:47:43.291Z,24.73
2022-08-29T11:50:15.180Z,24.66
2022-08-29T11:52:46.695Z,24.26
2022-08-29T11:55:18.556Z,24.43
2022-08-29T11:57:51.074Z,24.65
2022-08-29T12:00:22.932Z,24.44
2022-08-29T12:02:54.822Z,23.87
2022-08-29T12:05:26.357Z,23.18
2022-08-29T12:08:02.833Z,24.65
2022-08-29T12:10:38.247Z,24.49
2022-08-29T12:13:09.752Z,24.47
2022-08-29T12:15:42.372Z,24.60
2022-08-29T12:18:15.468Z,25.12
2022-08-29T12:20:47.124Z,24.76
2022-08-29T12:23:19.004Z,24.02
2022-08-29T12:26:09.555Z,24.15
2022-08-29T12:28:42.478Z,24.01
2022-08-29T12:31:14.000Z,24.15
2022-08-29T12:33:45.677Z,24.30
2022-08-29T12:36:18.235Z,25.35
2022-08-29T12:38:50.613Z,25.06
2022-08-29T12:41:22.103Z,24.98
2022-08-29T12:43:53.644Z,24.53
2022-08-29T12:46:25.981Z,24.20
2022-08-29T12:48:58.466Z,23.67
2022-08-29T12:51:30.130Z,23.58
2022-08-29T12:54:02.010Z,24.29
2022-08-29T12:56:33.517Z,24.46
2022-08-29T12:59:05.127Z,24.84
2022-08-29T13:01:38.039Z,24.80
2022-08-29T13:04:10.030Z,24.97
2022-08-29T13:06:41.547Z,24.79
2022-08-29T13:09:17.706Z,24.91
2022-08-29T13:11:49.323Z,24.19
2022-08-29T13:14:21.860Z,25.08
2022-08-29T13:16:53.352Z,24.69
2022-08-29T13:19:25.769Z,24.94
2022-08-29T13:21:57.267Z,24.65
2022-08-29T13:24:29.102Z,24.54
2022-08-29T13:27:05.310Z,24.14
2022-08-29T13:29:38.627Z,24.00
2022-08-29T13:32:10.240Z,24.51
2022-08-29T13:34:42.053Z,25.00
2022-08-29T13:37:19.997Z,24.86
2022-08-29T13:39:52.301Z,25.37
2022-08-29T13:42:23.893Z,24.84
2022-08-29T13:44:55.454Z,25.64
2022-08-29T13:47:26.963Z,25.75
2022-08-29T13:49:58.799Z,26.38
2022-08-29T13:52:31.937Z,26.75
2022-08-29T13:55:03.708Z,26.83
2022-08-29T13:57:35.591Z,26.42
2022-08-29T14:00:07.594Z,27.03
2022-08-29T14:02:44.644Z,27.19
2022-08-29T14:05:16.843Z,27.21
2022-08-29T14:07:48.408Z,27.58
2022-08-29T14:10:19.932Z,26.01
2022-08-29T14:12:51.474Z,27.19
2022-08-29T14:15:23.010Z,27.26
2022-08-29T14:17:54.555Z,26.91
2022-08-29T14:20:26.160Z,26.79
2022-08-29T14:22:58.100Z,26.73
2022-08-29T14:25:29.610Z,26.83
2022-08-29T14:28:01.456Z,26.51
2022-08-29T14:30:33.159Z,26.93
2022-08-29T14:33:05.026Z,26.57
2022-08-29T14:35:36.527Z,25.68
2022-08-29T14:38:14.696Z,25.57
2022-08-29T14:40:46.661Z,26.79
2022-08-29T14:43:18.570Z,26.85
2022-08-29T14:45:51.377Z,26.93
2022-08-29T14:48:23.250Z,27.77
2022-08-29T14:50:54.779Z,28.59
2022-08-29T14:53:26.773Z,27.97
2022-08-29T14:55:58.279Z,27.07
2022-08-29T14:58:29.804Z,26.69
2022-08-29T15:01:03.084Z,27.51
2022-08-29T15:03:34.597Z,26.60
2022-08-29T15:06:06.420Z,26.46
2022-08-29T15:08:37.949Z,27.53
2022-08-29T15:11:09.527Z,27.87
2022-08-29T15:13:41.047Z,27.18
2022-08-29T15:16:12.615Z,26.42
2022-08-29T15:19:24.793Z,26.10
2022-08-29T15:21:36.506Z,25.59
2022-08-29T15:24:08.087Z,25.81
2022-08-29T15:26:39.983Z,27.13
2022-08-29T15:29:11.502Z,26.68
2022-08-29T15:31:43.317Z,26.78
2022-08-29T15:34:14.823Z,25.65
2022-08-29T15:36:46.652Z,25.18
2022-08-29T15:39:18.310Z,24.86
2022-08-29T15:41:49.907Z,24.83
2022-08-29T15:44:21.403Z,25.49
2022-08-29T15:46:53.952Z,25.60
2022-08-29T15:49:25.942Z,25.43
2022-08-29T15:51:57.844Z,25.31
2022-08-29T15:54:29.351Z,25.20
2022-08-29T15:57:00.906Z,24.93
2022-08-29T15:59:56.725Z,24.69
2022-08-29T16:02:24.341Z,24.52
2022-08-29T16:04:57.211Z,24.29
2022-08-29T16:07:29.792Z,24.11
2022-08-29T16:10:04.536Z,24.00
2022-08-29T16:12:42.772Z,23.93
2022-08-29T16:15:14.276Z,23.89
2022-08-29T16:17:46.134Z,23.82
2022-08-29T16:20:17.639Z,23.72
2022-08-29T16:22:49.185Z,23.65
2022-08-29T16:25:20.670Z,23.73
2022-08-29T16:27:52.236Z,23.48
2022-08-29T16:30:23.768Z,23.44
2022-08-29T16:32:56.458Z,23.33
2022-08-29T16:35:28.394Z,23.19
2022-08-29T16:38:02.654Z,23.11
2022-08-29T16:40:35.001Z,22.91
2022-08-29T16:43:06.617Z,22.93
2022-08-29T16:45:38.287Z,23.04
2022-08-29T16:48:14.319Z,23.10
2022-08-29T16:50:48.619Z,23.12
2022-08-29T16:53:21.021Z,23.12
2022-08-29T16:55:52.539Z,23.10
2022-08-29T16:58:42.912Z,22.96
2022-08-29T17:01:14.496Z,22.91
2022-08-29T17:03:46.031Z,22.75
2022-08-29T17:06:17.520Z,22.75
2022-08-29T17:08:49.336Z,22.63
2022-08-29T17:11:20.981Z,22.51
2022-08-29T17:13:52.926Z,22.41
2022-08-29T17:16:24.503Z,22.33
2022-08-29T17:18:56.424Z,22.17
2022-08-29T17:21:27.967Z,22.07
2022-08-29T17:23:59.512Z,22.00
2022-08-29T17:26:31.026Z,21.87
2022-08-29T17:29:02.586Z,21.75
2022-08-29T17:31:38.432Z,21.60
2022-08-29T17:34:10.571Z,21.48
2022-08-29T17:36:44.639Z,21.41
2022-08-29T17:39:16.179Z,21.36
2022-08-29T17:41:47.797Z,21.27
2022-08-29T17:44:20.502Z,21.13
2022-08-29T17:46:52.013Z,21.10
2022-08-29T17:49:25.540Z,21.05
2022-08-29T17:51:59.564Z,20.96
2022-08-29T17:54:31.102Z,20.92
2022-08-29T17:57:02.993Z,20.83
2022-08-29T17:59:34.533Z,20.79
2022-08-29T18:02:06.416Z,20.70
2022-08-29T18:04:38.028Z,20.59
2022-08-29T18:07:09.844Z,20.52
2022-08-29T18:09:41.362Z,20.44
2022-08-29T18:12:13.168Z,20.37
2022-08-29T18:14:44.759Z,20.29
2022-08-29T18:17:16.642Z,20.23
2022-08-29T18:19:48.224Z,20.17
2022-08-29T18:22:20.242Z,20.10
2022-08-29T18:24:53.212Z,20.03
2022-08-29T18:27:25.275Z,19.93
2022-08-29T18:29:57.452Z,19.88
2022-08-29T18:32:29.705Z,19.82
2022-08-29T18:35:08.826Z,19.74
2022-08-29T18:37:40.713Z,19.68
2022-08-29T18:40:12.311Z,19.61
2022-08-29T18:42:44.133Z,19.54
2022-08-29T18:45:16.056Z,19.47
2022-08-29T18:47:47.959Z,19.38
2022-08-29T18:50:34.667Z,19.30
2022-08-29T18:53:06.517Z,19.22
2022-08-29T18:55:38.085Z,19.19
2022-08-29T18:58:10.455Z,19.13
2022-08-29T19:00:42.734Z,19.02
2022-08-29T19:03:14.955Z,18.96
2022-08-29T19:05:48.393Z,18.92
2022-08-29T19:08:20.210Z,18.86
2022-08-29T19:10:53.987Z,18.83
2022-08-29T19:13:27.300Z,18.81
2022-08-29T19:16:03.490Z,18.76
2022-08-29T19:18:35.125Z,18.70
2022-08-29T19:21:06.997Z,18.63
2022-08-29T19:23:38.844Z,18.56
2022-08-29T19:26:10.372Z,18.49
2022-08-29T19:28:42.215Z,18.45
2022-08-29T19:31:15.010Z,18.44
2022-08-29T19:33:47.890Z,18.40
2022-08-29T19:36:20.037Z,18.36
2022-08-29T19:38:51.655Z,18.33
2022-08-29T19:41:25.103Z,18.29
2022-08-29T19:43:56.849Z,18.27
2022-08-29T19:46:33.066Z,18.25
2022-08-29T19:49:07.623Z,18.20
2022-08-29T19:51:39.728Z,18.13
2022-08-29T19:54:11.232Z,18.12
2022-08-29T19:56:46.719Z,18.06
2022-08-29T19:59:18.686Z,18.03
2022-08-29T20:01:50.719Z,17.99
2022-08-29T20:04:22.275Z,17.95
2022-08-29T20:06:57.283Z,17.88
2022-08-29T20:09:31.586Z,17.78
2022-08-29T20:12:04.176Z,17.78
2022-08-29T20:14:35.755Z,17.77
2022-08-29T20:17:09.364Z,17.77
2022-08-29T20:19:41.114Z,17.79
2022-08-29T20:22:13.470Z,17.78
2022-08-29T20:24:46.626Z,17.78
2022-08-29T20:27:18.432Z,17.78
2022-08-29T20:29:50.542Z,17.75
2022-08-29T20:32:22.375Z,17.72
2022-08-29T20:34:53.886Z,17.70
2022-08-29T20:37:26.422Z,17.70
2022-08-29T20:39:58.065Z,17.71
2022-08-29T20:42:30.624Z,17.69
2022-08-29T20:45:02.120Z,17.69
2022-08-29T20:47:33.630Z,17.69
2022-08-29T20:50:05.134Z,17.68
2022-08-29T20:52:36.965Z,17.67
2022-08-29T20:55:08.474Z,17.66
2022-08-29T20:57:41.456Z,17.68
2022-08-29T21:00:12.959Z,17.64
2022-08-29T21:03:03.782Z,17.61
2022-08-29T21:05:42.489Z,17.61
2022-08-29T21:08:15.044Z,17.57
2022-08-29T21:10:46.942Z,17.54
2022-08-29T21:13:18.917Z,17.56
2022-08-29T21:15:50.844Z,17.57
2022-08-29T21:18:24.824Z,17.54
2022-08-29T21:20:56.648Z,17.54
2022-08-29T21:23:28.152Z,17.52
2022-08-29T21:26:00.028Z,17.50
2022-08-29T21:28:32.857Z,17.46
2022-08-29T21:31:04.868Z,17.44
2022-08-29T21:33:36.414Z,17.42
2022-08-29T21:36:08.648Z,17.37
2022-08-29T21:38:40.417Z,17.35
2022-08-29T21:41:12.487Z,17.33
2022-08-29T21:43:44.056Z,17.30
2022-08-29T21:46:16.180Z,17.25
2022-08-29T21:48:47.770Z,17.21
2022-08-29T21:51:21.957Z,17.18
2022-08-29T21:53:53.455Z,17.13
2022-08-29T21:56:25.337Z,17.09
2022-08-29T21:58:57.212Z,17.03
2022-08-29T22:01:30.159Z,17.00
2022-08-29T22:04:01.777Z,16.99
2022-08-29T22:06:35.435Z,16.96
2022-08-29T22:09:07.992Z,16.91
2022-08-29T22:11:39.998Z,16.85
2022-08-29T22:14:11.740Z,16.78
2022-08-29T22:16:43.700Z,16.77
2022-08-29T22:19:15.231Z,16.74
2022-08-29T22:21:46.784Z,16.72
2022-08-29T22:24:18.378Z,16.70
2022-08-29T22:26:50.176Z,16.71
2022-08-29T22:29:21.832Z,16.71
2022-08-29T22:31:55.496Z,16.73
2022-08-29T22:34:27.200Z,16.73
2022-08-29T22:36:59.078Z,16.72
2022-08-29T22:39:30.604Z,16.73
2022-08-29T22:42:02.787Z,16.75
2022-08-29T22:47:26.083Z,16.75
2022-08-29T22:49:58.480Z,16.77
2022-08-29T22:52:29.991Z,16.77
2022-08-29T22:55:01.817Z,16.78
2022-08-29T22:57:33.319Z,16.81
2022-08-29T23:00:05.300Z,16.78
2022-08-29T23:02:36.842Z,16.78
2022-08-29T23:05:09.970Z,16.81
2022-08-29T23:07:41.718Z,16.82
2022-08-29T23:10:13.651Z,16.80
2022-08-29T23:12:45.479Z,16.79
2022-08-29T23:15:17.318Z,16.80
2022-08-29T23:17:48.849Z,16.82
2022-08-29T23:20:22.044Z,16.79
2022-08-29T23:22:53.542Z,16.78
2022-08-29T23:25:25.845Z,16.72
2022-08-29T23:27:57.373Z,16.68
2022-08-29T23:30:29.188Z,16.63
2022-08-29T23:33:00.684Z,16.60
2022-08-29T23:35:32.511Z,16.55
2022-08-29T23:38:04.265Z,16.52
2022-08-29T23:40:40.416Z,16.49
2022-08-29T23:43:11.958Z,16.46
2022-08-29T23:45:43.834Z,16.45
2022-08-29T23:48:15.458Z,16.41
2022-08-29T23:50:47.542Z,16.38
2022-08-29T23:53:20.623Z,16.33
2022-08-29T23:55:52.439Z,16.30
2022-08-29T23:58:23.985Z,16.27
